РПИ Нур-Султан

РПИ Нур-Султан является структурным подразделением дивизиона VATRUS сети VATSIM.

РПИ осуществляет свою деятельность в границах Акмолинской, Карагандинской, Павлодарской, Северо-Казахстанской и Костанайской областей Республики Казахстан.

Схемы и аэронавигационную информацию можно получить на сайте   Казаэронавигация

Средства связи ОВД:

UACN_CTR - Нур-Султан Контроль - 132.800

RU-CEN_FSS - Азия Радар  - 132.850 (РПИ: UACN, UAAA, UAII, UATT, UTAA, UCFM, UTAT, UTDD, UTTR,  UCFO,  UTSD, UTAV,  UTAK)

Руководство

Evgeny Vygornitsky*

Куратор

Dmitriy Bannov

Помощник куратора по Казахстану
Инструкторы РПИ
Dmitriy Bannov (Instructor)
Evgeny Vygornitsky (Supervisor)
Vitaliy Alekseyev (Instructor)
Входит в состав
Центральная Азия

Диспетчеры РПИ

Диспетчер Рейтинг Допуски *
Dmitriy Bannov Instructor UACN_CTR
Alexandr Sokolov Student 2 UACC_TWR
Alikhan Aidarbek Student UACC_TWR
Arman Maxatov Student 2 UACC_TWR
Artem Kuzmenko Student UACC_GND
Kirill Ardatov Student 2 UACC_TWR
Sarsenov Shadiyar Student UACC_GND

Аэропорты РПИ

ICAO Город Название Погода
UAKK Караганда Караганда UAKK 100830Z 24007MPS 9999 FEW012 BKN048 M17/M20 Q1038 NOSIG RMK QFE731/0974
UACC Нур-Султан Нур-Султан UACC 100830Z 23006MPS CAVOK M17/M20 Q1038 NOSIG RMK QFE747/0996
UAKD Жезказган Жезказган UAKD 100830Z 33002MPS 300V360 CAVOK M13/M18 Q1041 NOSIG RMK QFE746/0995
UACK Кокшетау Кокшетау UACK 100830Z 28008MPS CAVOK M10/M16 Q1034 NOSIG RMK QFE751/1002
UAUU Костанай Костанай UAUU 100830Z 15003MPS CAVOK M18/M23 Q1038 NOSIG RMK QFE761/1015
UASP Павлодар Павлодар UASP 100830Z 23006MPS CAVOK M13/M17 Q1035 NOSIG RMK QFE764/1019
UACP Петропавловск Петропавловск UACP 100830Z 27004MPS 6000 -SHSN BKN030CB M10/M13 Q1033 NOSIG RMK QFE762/1016